Time;durP1;ratioP1;P1;durP2;ratioP2;P2;SDS_P1;SDS_P2;PMS_P1;PMS_P2;Temp;Humidity;BMP_temperature;BMP_pressure;BME280_temperature;BME280_humidity;BME280_pressure;Samples;Min_cycle;Max_cycle;Signal;HPM_P1;HPM_P2
2022/05/03 00:02:19;;;;;;;17.52;10.57;;;8.80;99.90;;;;;;5012368;28;20069;-73
2022/05/03 00:05:06;;;;;;;14.80;10.80;;;8.80;99.90;;;;;;5011914;28;20026;-73
2022/05/03 00:07:37;;;;;;;15.60;10.48;;;8.80;99.90;;;;;;5012681;28;20056;-73
2022/05/03 00:10:29;;;;;;;11.68;10.52;;;8.70;99.90;;;;;;5012343;28;20026;-73
2022/05/03 00:13:05;;;;;;;18.48;11.65;;;8.70;99.90;;;;;;5011532;28;20030;-73
2022/05/03 00:15:34;;;;;;;14.05;11.50;;;8.70;99.90;;;;;;5012403;28;20034;-73
2022/05/03 00:18:02;;;;;;;14.15;10.98;;;8.70;99.90;;;;;;5011283;28;20383;-73
2022/05/03 00:20:28;;;;;;;11.88;10.32;;;8.70;99.90;;;;;;5012282;28;20543;-73
2022/05/03 00:22:55;;;;;;;14.98;10.23;;;8.60;99.90;;;;;;5012122;28;20018;-73
2022/05/03 00:25:21;;;;;;;12.88;10.75;;;8.60;99.90;;;;;;5011653;28;20029;-73
2022/05/03 00:27:47;;;;;;;11.90;9.90;;;8.60;99.90;;;;;;5012365;28;20045;-73
2022/05/03 00:30:13;;;;;;;11.43;10.27;;;8.60;99.90;;;;;;5012429;28;20049;-72
2022/05/03 00:32:40;;;;;;;12.00;10.32;;;8.60;99.90;;;;;;5011479;28;20474;-74
2022/05/03 00:35:08;;;;;;;13.73;11.27;;;8.60;99.90;;;;;;5012002;28;20030;-72
2022/05/03 00:37:33;;;;;;;16.83;10.95;;;8.60;99.90;;;;;;5012141;28;20026;-73
2022/05/03 00:39:59;;;;;;;18.13;12.82;;;8.60;99.90;;;;;;5011275;28;20037;-73
2022/05/03 00:42:59;;;;;;;13.13;11.70;;;8.60;99.90;;;;;;5012217;28;20029;-73
2022/05/03 00:45:47;;;;;;;12.35;11.10;;;8.60;99.90;;;;;;5010943;28;20038;-71
2022/05/03 00:48:35;;;;;;;14.98;12.25;;;8.50;99.90;;;;;;5012157;28;20034;-72
2022/05/03 00:51:08;;;;;;;14.65;11.95;;;8.50;99.90;;;;;;5015995;28;20037;-72
2022/05/03 00:53:46;;;;;;;15.25;12.40;;;8.50;99.90;;;;;;5015856;28;20208;-72
2022/05/03 00:56:24;;;;;;;16.00;12.77;;;8.40;99.90;;;;;;5015592;28;20050;-72
2022/05/03 00:58:56;;;;;;;17.17;13.45;;;8.50;99.90;;;;;;5015675;28;20064;-73
2022/05/03 01:01:39;;;;;;;17.50;13.55;;;8.50;99.90;;;;;;5014994;28;20104;-72
2022/05/03 01:04:19;;;;;;;17.33;13.18;;;8.50;99.90;;;;;;5015652;28;20037;-72
2022/05/03 01:07:04;;;;;;;16.92;13.55;;;8.30;99.90;;;;;;5015661;28;20350;-72
2022/05/03 01:09:42;;;;;;;18.67;13.77;;;8.20;99.90;;;;;;5015378;28;20026;-72
2022/05/03 01:12:16;;;;;;;22.48;15.25;;;8.20;99.90;;;;;;5015465;28;20522;-72
2022/05/03 01:14:51;;;;;;;20.00;15.20;;;8.20;99.90;;;;;;5015045;28;20391;-72
2022/05/03 01:17:36;;;;;;;18.20;14.68;;;8.20;99.90;;;;;;5015493;28;20036;-73
2022/05/03 01:20:05;;;;;;;21.83;15.50;;;8.20;99.90;;;;;;5015134;28;20046;-73
2022/05/03 01:22:52;;;;;;;20.50;16.10;;;8.20;99.90;;;;;;5014701;28;20026;-73
2022/05/03 01:25:55;;;;;;;21.80;14.85;;;8.10;99.90;;;;;;5015470;28;20037;-72
2022/05/03 01:28:54;;;;;;;22.25;15.60;;;8.10;99.90;;;;;;5014556;28;20068;-73
2022/05/03 01:31:22;;;;;;;27.40;18.45;;;8.10;99.90;;;;;;5015274;28;20517;-73
2022/05/03 01:33:49;;;;;;;27.13;18.40;;;8.10;99.90;;;;;;5015099;28;20108;-73
2022/05/03 01:36:27;;;;;;;29.83;18.48;;;8.20;99.90;;;;;;5014385;28;20036;-73
2022/05/03 01:39:04;;;;;;;27.38;18.58;;;8.10;99.90;;;;;;5014729;28;20548;-73
2022/05/03 01:41:54;;;;;;;28.80;18.75;;;8.20;99.90;;;;;;5015176;28;20032;-73
2022/05/03 01:44:40;;;;;;;27.80;18.27;;;8.20;99.90;;;;;;5014136;28;20084;-73
2022/05/03 01:47:35;;;;;;;27.98;18.95;;;8.10;99.90;;;;;;5014622;28;20061;-73
2022/05/03 01:50:19;;;;;;;30.48;19.60;;;8.10;99.90;;;;;;5014292;28;20064;-72
2022/05/03 01:53:06;;;;;;;26.50;18.95;;;8.00;99.90;;;;;;5014916;28;20022;-71
2022/05/03 01:55:40;;;;;;;31.83;18.52;;;8.00;99.90;;;;;;5014843;28;20199;-73
2022/05/03 01:58:35;;;;;;;28.02;18.75;;;7.90;99.90;;;;;;5013929;28;20065;-73
2022/05/03 02:01:15;;;;;;;28.33;19.77;;;7.90;99.90;;;;;;5013418;28;20406;-73
2022/05/03 02:04:06;;;;;;;27.90;19.65;;;7.90;99.90;;;;;;5013850;28;20073;-73
2022/05/03 02:06:54;;;;;;;24.38;18.60;;;7.90;99.90;;;;;;5014810;28;20061;-73
2022/05/03 02:09:28;;;;;;;28.10;18.77;;;8.00;99.90;;;;;;5014623;28;20030;-74
2022/05/03 02:12:15;;;;;;;28.40;18.15;;;7.90;99.90;;;;;;5013493;28;20037;-73
2022/05/03 02:15:04;;;;;;;28.00;20.02;;;7.90;99.90;;;;;;5014639;28;20109;-73
2022/05/03 02:17:51;;;;;;;23.95;16.58;;;7.90;99.90;;;;;;5013683;28;20055;-73
2022/05/03 02:20:31;;;;;;;20.27;15.63;;;7.80;99.90;;;;;;5014219;28;20034;-73
2022/05/03 02:22:59;;;;;;;20.55;14.90;;;7.80;99.90;;;;;;5014158;28;20033;-73
2022/05/03 02:25:30;;;;;;;22.58;15.20;;;7.70;99.90;;;;;;5013500;28;20033;-73
2022/05/03 02:28:04;;;;;;;20.75;15.30;;;7.70;99.90;;;;;;5013931;28;20022;-73
2022/05/03 02:30:35;;;;;;;22.58;15.98;;;7.60;99.90;;;;;;5028984;28;20056;-73
2022/05/03 02:33:04;;;;;;;25.83;17.95;;;7.60;99.90;;;;;;5032942;28;20029;-73
2022/05/03 02:35:35;;;;;;;26.25;18.55;;;7.50;99.90;;;;;;5033994;28;20029;-73
2022/05/03 02:38:05;;;;;;;22.63;16.55;;;7.50;99.90;;;;;;5033501;28;20042;-72
2022/05/03 02:40:32;;;;;;;23.88;16.48;;;7.50;99.90;;;;;;5032951;28;20503;-72
2022/05/03 02:42:58;;;;;;;23.65;17.08;;;7.50;99.90;;;;;;5033526;28;20029;-72
2022/05/03 02:45:24;;;;;;;20.98;15.65;;;7.50;99.90;;;;;;5032896;28;20079;-72
2022/05/03 02:48:18;;;;;;;25.40;18.00;;;7.40;99.90;;;;;;5033529;28;20021;-72
2022/05/03 02:50:58;;;;;;;35.47;21.02;;;7.40;99.90;;;;;;5033762;28;20044;-73
2022/05/03 02:53:47;;;;;;;35.67;22.52;;;7.50;99.90;;;;;;5032963;28;20044;-74
2022/05/03 02:56:23;;;;;;;42.35;26.08;;;7.80;99.90;;;;;;5033269;28;20099;-73
2022/05/03 02:59:11;;;;;;;45.90;26.42;;;7.90;99.90;;;;;;5033217;28;20037;-72
2022/05/03 03:01:56;;;;;;;48.30;27.55;;;7.90;99.90;;;;;;5032695;28;20034;-71
2022/05/03 03:04:52;;;;;;;48.35;27.77;;;7.90;99.90;;;;;;5033272;28;20473;-72
2022/05/03 03:07:19;;;;;;;46.15;26.35;;;7.80;99.90;;;;;;5032716;28;20075;-73
2022/05/03 03:09:52;;;;;;;41.28;25.65;;;7.80;99.90;;;;;;5033313;28;20030;-72
2022/05/03 03:12:34;;;;;;;38.67;23.52;;;7.60;99.90;;;;;;5033159;28;20045;-72
2022/05/03 03:15:09;;;;;;;33.40;22.00;;;7.50;99.90;;;;;;5032354;28;20033;-71
2022/05/03 03:17:50;;;;;;;28.75;18.38;;;7.50;99.90;;;;;;5032990;28;20401;-73
2022/05/03 03:20:21;;;;;;;28.85;18.27;;;7.30;99.90;;;;;;5033016;28;20604;-71
2022/05/03 03:22:48;;;;;;;26.50;17.80;;;7.20;99.90;;;;;;5031960;28;20061;-72
2022/05/03 03:25:17;;;;;;;26.63;18.63;;;7.20;99.90;;;;;;5032770;28;20469;-72
2022/05/03 03:27:45;;;;;;;28.42;18.35;;;7.10;99.90;;;;;;5032003;28;20040;-72
2022/05/03 03:30:12;;;;;;;25.67;16.40;;;7.10;99.90;;;;;;5032450;28;20366;-72
2022/05/03 03:32:48;;;;;;;27.25;16.80;;;7.00;99.90;;;;;;5032921;28;20034;-72
2022/05/03 03:35:14;;;;;;;24.50;15.43;;;7.00;99.90;;;;;;5031940;28;20025;-72
2022/05/03 03:37:46;;;;;;;23.08;16.58;;;7.00;99.90;;;;;;5032812;28;20041;-72
2022/05/03 03:40:15;;;;;;;29.85;18.35;;;6.90;99.90;;;;;;5032460;28;20045;-72
2022/05/03 03:42:42;;;;;;;31.45;20.40;;;6.90;99.90;;;;;;5032064;28;20045;-72
2022/05/03 03:45:10;;;;;;;26.67;17.42;;;6.90;99.90;;;;;;5032267;28;20040;-74
2022/05/03 03:47:36;;;;;;;25.65;17.65;;;6.90;99.90;;;;;;5032361;28;20041;-73
2022/05/03 03:50:06;;;;;;;25.27;17.08;;;6.90;99.90;;;;;;5031321;28;20029;-72
2022/05/03 03:52:34;;;;;;;29.85;18.95;;;6.90;99.90;;;;;;5032212;28;20120;-72
2022/05/03 03:55:02;;;;;;;36.50;19.98;;;6.90;99.90;;;;;;5031732;28;20049;-72
2022/05/03 03:57:28;;;;;;;28.23;18.75;;;6.90;99.90;;;;;;5030238;28;20029;-72
2022/05/03 03:59:54;;;;;;;26.67;16.75;;;6.80;99.90;;;;;;5031713;28;20048;-72
2022/05/03 04:02:21;;;;;;;21.95;16.23;;;6.90;99.90;;;;;;5032006;28;20048;-72
2022/05/03 04:04:49;;;;;;;30.75;19.88;;;6.80;99.90;;;;;;5031113;28;20026;-73
2022/05/03 04:07:15;;;;;;;22.05;15.88;;;6.90;99.90;;;;;;5031975;28;20072;-72
2022/05/03 04:09:40;;;;;;;21.92;15.65;;;6.90;99.90;;;;;;5032182;28;20049;-73
2022/05/03 04:12:06;;;;;;;22.75;16.25;;;6.90;99.90;;;;;;5030990;28;20535;-72
2022/05/03 04:14:32;;;;;;;27.52;17.88;;;6.80;99.90;;;;;;5032000;28;20025;-74
2022/05/03 04:16:59;;;;;;;23.77;15.60;;;6.80;99.90;;;;;;5031009;28;20052;-72
2022/05/03 04:19:25;;;;;;;20.55;14.30;;;6.80;99.90;;;;;;5032099;28;20069;-72
2022/05/03 04:21:51;;;;;;;31.85;18.50;;;6.80;99.90;;;;;;5031744;28;20058;-74
2022/05/03 04:24:17;;;;;;;27.58;17.25;;;6.80;99.90;;;;;;5030861;28;20124;-72
2022/05/03 04:26:42;;;;;;;29.33;17.77;;;6.80;99.90;;;;;;5031892;28;20474;-72
2022/05/03 04:29:08;;;;;;;30.65;18.48;;;6.80;99.90;;;;;;5031683;28;20100;-72
2022/05/03 04:31:35;;;;;;;28.10;17.50;;;6.80;99.90;;;;;;5031004;28;20022;-72
2022/05/03 04:34:03;;;;;;;29.25;18.13;;;6.80;99.90;;;;;;5031354;28;20041;-72
2022/05/03 04:36:30;;;;;;;27.13;17.27;;;6.80;99.90;;;;;;5031904;28;20021;-72
2022/05/03 04:38:56;;;;;;;26.65;17.10;;;6.80;99.90;;;;;;5030891;28;20038;-72
2022/05/03 04:41:23;;;;;;;34.25;18.83;;;6.80;99.90;;;;;;5031840;28;20071;-73
2022/05/03 04:43:49;;;;;;;39.08;20.73;;;6.80;99.90;;;;;;5031377;28;20029;-73
2022/05/03 04:46:15;;;;;;;32.65;20.23;;;6.80;99.90;;;;;;5030923;28;20026;-73
2022/05/03 04:48:41;;;;;;;35.05;22.02;;;6.90;99.90;;;;;;5031793;28;20489;-73
2022/05/03 04:51:15;;;;;;;40.33;23.58;;;7.00;99.90;;;;;;5031433;28;20048;-72
2022/05/03 04:53:41;;;;;;;42.35;24.52;;;7.00;99.90;;;;;;5031090;28;20095;-72
2022/05/03 04:56:06;;;;;;;39.40;22.65;;;7.10;99.90;;;;;;5031125;28;20497;-72
2022/05/03 04:58:32;;;;;;;35.42;21.67;;;7.20;99.90;;;;;;5031394;28;20083;-73
2022/05/03 05:00:57;;;;;;;34.65;20.80;;;7.20;99.90;;;;;;5030593;28;20018;-73
2022/05/03 05:03:26;;;;;;;44.83;26.40;;;7.20;99.90;;;;;;5031661;28;20026;-73
2022/05/03 05:05:51;;;;;;;46.55;26.30;;;7.30;99.90;;;;;;5031381;28;20104;-73
2022/05/03 05:08:17;;;;;;;47.55;27.63;;;7.40;99.90;;;;;;5030870;28;20116;-73
2022/05/03 05:10:43;;;;;;;49.85;27.95;;;7.50;99.90;;;;;;5031610;28;20392;-73
2022/05/03 05:13:09;;;;;;;50.70;28.20;;;7.70;99.90;;;;;;5030675;28;20022;-73
2022/05/03 05:15:35;;;;;;;49.83;27.80;;;7.80;99.90;;;;;;5031391;28;20405;-73
2022/05/03 05:18:01;;;;;;;49.80;28.88;;;7.90;99.90;;;;;;5031233;28;20033;-73
2022/05/03 05:20:26;;;;;;;48.53;27.02;;;7.90;99.90;;;;;;5030699;28;20478;-73
2022/05/03 05:22:52;;;;;;;45.78;25.45;;;7.90;99.90;;;;;;5031298;28;20021;-72
2022/05/03 05:25:18;;;;;;;42.15;25.45;;;7.90;99.90;;;;;;5031498;28;20367;-73
2022/05/03 05:27:44;;;;;;;38.40;25.02;;;7.90;99.90;;;;;;5030669;28;20131;-73
2022/05/03 05:30:10;;;;;;;44.90;26.98;;;8.00;99.90;;;;;;5030980;28;20030;-74
2022/05/03 05:32:36;;;;;;;43.95;26.55;;;8.10;99.90;;;;;;5031192;28;20025;-72
2022/05/03 05:35:04;;;;;;;45.45;25.58;;;8.20;99.90;;;;;;5030658;28;20382;-71
2022/05/03 05:37:32;;;;;;;37.40;24.00;;;8.30;99.90;;;;;;5034205;28;20572;-72
2022/05/03 05:39:58;;;;;;;49.30;26.90;;;8.40;99.90;;;;;;5034502;28;20042;-73
2022/05/03 05:42:26;;;;;;;39.50;23.85;;;8.50;99.90;;;;;;5033830;28;20024;-72
2022/05/03 05:44:52;;;;;;;43.80;24.77;;;8.60;99.90;;;;;;5034545;28;20037;-73
2022/05/03 05:47:18;;;;;;;38.00;23.80;;;8.70;99.90;;;;;;5034701;28;20900;-72
2022/05/03 05:49:44;;;;;;;36.97;22.63;;;8.80;99.90;;;;;;5034014;28;20069;-72
2022/05/03 05:54:53;;;;;;;33.45;21.50;;;8.90;99.90;;;;;;5034320;28;20041;-72
2022/05/03 05:57:20;;;;;;;32.25;21.50;;;9.10;99.90;;;;;;5033629;28;20419;-71
2022/05/03 05:59:45;;;;;;;31.02;20.75;;;9.20;99.90;;;;;;5034405;28;20077;-72
2022/05/03 06:02:11;;;;;;;29.92;21.52;;;9.40;99.90;;;;;;5034124;28;20061;-73
2022/05/03 06:04:36;;;;;;;30.75;20.10;;;9.50;99.90;;;;;;5033563;28;20048;-72
2022/05/03 06:07:02;;;;;;;30.10;21.42;;;9.60;99.90;;;;;;5033894;28;20108;-72
2022/05/03 06:09:27;;;;;;;30.13;20.85;;;9.80;99.90;;;;;;5033373;28;20025;-72
2022/05/03 06:11:53;;;;;;;32.13;19.77;;;9.90;99.90;;;;;;5034093;28;20037;-73
2022/05/03 06:14:18;;;;;;;29.88;20.08;;;10.10;99.90;;;;;;5034234;28;20033;-73
2022/05/03 06:16:51;;;;;;;28.63;19.95;;;10.30;99.90;;;;;;5033556;28;20492;-73
2022/05/03 06:19:17;;;;;;;29.08;20.70;;;10.50;99.90;;;;;;5034238;28;20400;-72
2022/05/03 06:21:43;;;;;;;29.60;20.63;;;10.60;99.90;;;;;;5034018;28;20025;-72
2022/05/03 06:24:08;;;;;;;27.65;20.77;;;10.80;99.90;;;;;;5033066;28;20034;-72
2022/05/03 06:26:34;;;;;;;29.80;20.60;;;10.90;99.90;;;;;;5034081;28;20026;-73
2022/05/03 06:29:06;;;;;;;27.15;21.08;;;11.00;99.90;;;;;;5033556;28;20025;-73
2022/05/03 06:31:35;;;;;;;28.73;21.08;;;11.10;99.90;;;;;;5032146;28;20033;-72
2022/05/03 06:34:01;;;;;;;31.15;21.60;;;11.10;99.90;;;;;;5033692;28;20381;-72
2022/05/03 06:36:27;;;;;;;28.65;21.42;;;11.20;99.90;;;;;;5033764;28;20026;-72
2022/05/03 06:38:52;;;;;;;27.05;20.55;;;11.20;99.90;;;;;;5032627;28;20037;-72
2022/05/03 06:41:21;;;;;;;35.92;21.63;;;11.30;99.90;;;;;;5033897;28;20029;-72
2022/05/03 06:43:46;;;;;;;31.20;22.70;;;11.40;99.90;;;;;;5033751;28;20448;-72
2022/05/03 06:46:12;;;;;;;34.00;23.10;;;11.40;99.90;;;;;;5032373;28;20112;-72
2022/05/03 06:48:38;;;;;;;30.98;22.63;;;11.40;99.90;;;;;;5033408;28;20026;-73
2022/05/03 06:51:05;;;;;;;35.95;22.75;;;11.40;99.90;;;;;;5033390;28;20146;-73
2022/05/03 06:53:31;;;;;;;31.35;23.67;;;11.50;99.90;;;;;;5033020;28;20041;-73
2022/05/03 06:55:57;;;;;;;36.63;24.13;;;11.60;99.90;;;;;;5033238;28;20131;-73
2022/05/03 06:58:22;;;;;;;36.45;23.40;;;11.70;99.90;;;;;;5033431;28;20069;-73
2022/05/03 07:01:09;;;;;;;41.47;26.42;;;11.90;99.90;;;;;;5032428;28;20045;-73
2022/05/03 07:03:38;;;;;;;38.60;25.80;;;12.00;99.90;;;;;;5032216;28;20354;-73
2022/05/03 07:06:04;;;;;;;39.65;24.50;;;11.90;99.90;;;;;;5032534;28;20025;-73
2022/05/03 07:08:31;;;;;;;38.53;24.77;;;12.00;99.90;;;;;;5033379;28;20083;-73
2022/05/03 07:10:57;;;;;;;39.50;25.52;;;12.10;99.90;;;;;;5033119;28;20091;-73
2022/05/03 07:13:25;;;;;;;41.65;27.38;;;12.20;99.90;;;;;;5032510;28;20473;-73
2022/05/03 07:15:52;;;;;;;40.83;26.83;;;12.30;99.90;;;;;;5032836;28;20104;-73
2022/05/03 07:23:45;;;;;;;41.63;27.45;;;12.40;99.90;;;;;;5033049;28;20057;-73
2022/05/03 07:26:11;;;;;;;39.13;27.95;;;12.30;99.90;;;;;;5032751;28;20469;-73
2022/05/03 07:28:37;;;;;;;40.92;28.25;;;12.50;99.90;;;;;;5032066;28;20414;-73
2022/05/03 07:31:06;;;;;;;48.17;29.95;;;12.60;99.90;;;;;;5032752;28;20544;-73
2022/05/03 07:33:32;;;;;;;41.58;27.00;;;12.60;99.90;;;;;;5032930;28;20088;-73
2022/05/03 07:35:58;;;;;;;44.47;29.13;;;12.60;99.90;;;;;;5031761;28;20025;-73
2022/05/03 07:38:23;;;;;;;42.25;29.92;;;12.60;99.90;;;;;;5032642;28;20061;-73
2022/05/03 07:40:49;;;;;;;45.75;28.83;;;12.70;99.90;;;;;;5032022;28;20025;-73
2022/05/03 07:43:14;;;;;;;41.03;29.00;;;12.80;99.90;;;;;;5032773;28;20100;-73
2022/05/03 07:45:40;;;;;;;42.42;29.35;;;12.90;99.90;;;;;;5034237;28;20037;-73
2022/05/03 07:48:06;;;;;;;34.90;25.55;;;13.10;99.90;;;;;;5034320;28;20788;-73
2022/05/03 07:50:32;;;;;;;45.22;28.27;;;13.20;99.90;;;;;;5032873;28;20025;-73
2022/05/03 07:52:58;;;;;;;39.85;28.52;;;13.30;99.90;;;;;;5034665;28;20033;-73
2022/05/03 07:55:23;;;;;;;39.90;27.63;;;13.40;99.90;;;;;;5035426;28;20045;-73
2022/05/03 07:57:49;;;;;;;39.10;28.27;;;13.50;99.90;;;;;;5037369;28;20053;-74
2022/05/03 08:00:15;;;;;;;35.25;26.50;;;13.50;99.90;;;;;;5039730;28;20022;-74
2022/05/03 08:02:40;;;;;;;39.05;26.23;;;13.70;99.90;;;;;;5037408;28;20033;-72
2022/05/03 08:05:07;;;;;;;34.83;26.63;;;13.80;99.90;;;;;;5037330;28;20052;-73
2022/05/03 08:07:35;;;;;;;32.92;25.48;;;13.80;99.90;;;;;;5033193;28;20091;-74
2022/05/03 08:10:00;;;;;;;37.30;26.27;;;14.00;99.90;;;;;;5033692;28;20022;-72
2022/05/03 08:12:26;;;;;;;32.20;24.55;;;14.10;99.90;;;;;;5036870;28;20077;-73
2022/05/03 08:14:53;;;;;;;40.33;28.00;;;14.20;99.90;;;;;;5033152;28;20543;-73
2022/05/03 08:17:19;;;;;;;39.55;27.00;;;14.20;99.90;;;;;;5035727;28;20017;-73
2022/05/03 08:19:44;;;;;;;34.97;27.75;;;14.30;99.90;;;;;;5033285;28;20096;-72
2022/05/03 08:22:10;;;;;;;39.88;28.27;;;14.30;99.90;;;;;;5031817;28;20022;-72
2022/05/03 08:24:36;;;;;;;42.22;30.52;;;14.40;99.90;;;;;;5031299;28;20473;-72
2022/05/03 08:27:03;;;;;;;35.42;25.70;;;14.50;99.90;;;;;;5031698;28;20021;-72
2022/05/03 08:29:29;;;;;;;29.08;22.20;;;14.60;99.90;;;;;;5032184;28;20032;-72
2022/05/03 08:31:55;;;;;;;35.08;23.75;;;14.50;99.90;;;;;;5031246;28;20034;-73
2022/05/03 08:34:21;;;;;;;27.13;20.90;;;14.50;99.90;;;;;;5034868;28;20087;-73
2022/05/03 08:42:01;;;;;;;32.63;22.65;;;14.40;99.90;;;;;;5032021;28;20449;-73
2022/05/03 08:42:16;;;;;;;31.05;23.67;;;14.50;99.90;;;;;;5031950;28;20393;-73
2022/05/03 08:44:42;;;;;;;30.67;21.95;;;14.60;99.90;;;;;;5031150;28;20026;-73
2022/05/03 08:47:08;;;;;;;24.60;18.50;;;14.80;99.90;;;;;;5031592;28;20037;-72
2022/05/03 08:49:42;;;;;;;25.58;20.65;;;14.80;99.90;;;;;;5031711;28;20033;-73
2022/05/03 08:52:10;;;;;;;30.05;20.83;;;14.80;99.90;;;;;;5030799;28;20052;-72
2022/05/03 08:54:37;;;;;;;30.75;22.45;;;14.90;99.90;;;;;;5031948;28;20025;-73
2022/05/03 08:57:07;;;;;;;26.80;21.05;;;15.00;99.90;;;;;;5031472;28;20055;-73
2022/05/03 08:59:34;;;;;;;32.65;24.45;;;15.10;99.90;;;;;;5031092;28;20034;-74
2022/05/03 09:01:59;;;;;;;35.67;25.23;;;15.10;99.90;;;;;;5031522;28;20029;-73
2022/05/03 09:04:25;;;;;;;35.70;25.50;;;14.90;99.90;;;;;;5031576;28;20481;-72
2022/05/03 09:06:51;;;;;;;37.30;27.55;;;14.90;99.90;;;;;;5030891;28;20481;-72
2022/05/03 09:09:20;;;;;;;37.03;27.02;;;14.80;99.90;;;;;;5031671;28;20068;-72
2022/05/03 09:11:48;;;;;;;42.30;30.67;;;14.80;99.90;;;;;;5035325;28;20435;-72
2022/05/03 09:14:34;;;;;;;44.95;32.42;;;14.90;99.90;;;;;;5034732;28;20065;-72
2022/05/03 09:17:00;;;;;;;42.70;30.92;;;15.00;99.90;;;;;;5035078;28;20101;-73
2022/05/03 09:19:26;;;;;;;51.83;36.40;;;15.10;99.90;;;;;;5034694;28;20120;-72
2022/05/03 09:24:53;;;;;;;51.65;35.83;;;15.00;99.90;;;;;;5035243;28;20036;-73
2022/05/03 09:27:20;;;;;;;55.42;37.72;;;14.90;99.90;;;;;;5034321;28;20084;-72
2022/05/03 09:29:59;;;;;;;60.90;41.50;;;14.90;99.90;;;;;;5035072;28;20025;-72
2022/05/03 09:32:42;;;;;;;56.58;39.05;;;15.10;99.90;;;;;;5035281;28;20034;-74
2022/05/03 09:35:31;;;;;;;58.38;38.72;;;15.10;99.90;;;;;;5033971;28;20509;-74
2022/05/03 09:37:57;;;;;;;69.15;42.95;;;15.20;99.90;;;;;;5034612;28;20036;-73
2022/05/03 09:40:23;;;;;;;62.47;42.65;;;15.10;99.90;;;;;;5034344;28;20037;-73
2022/05/03 09:42:56;;;;;;;58.50;40.70;;;15.30;99.90;;;;;;5034724;28;20072;-72
2022/05/03 09:45:26;;;;;;;58.78;40.35;;;15.40;99.90;;;;;;5034946;28;20047;-72
2022/05/03 09:47:54;;;;;;;62.53;41.05;;;15.50;99.90;;;;;;5033781;28;20029;-72
2022/05/03 09:50:27;;;;;;;58.38;42.25;;;15.40;99.90;;;;;;5034644;28;20037;-71
2022/05/03 09:52:53;;;;;;;59.78;40.60;;;15.30;99.90;;;;;;5034440;28;20545;-73
2022/05/03 09:55:31;;;;;;;57.42;41.50;;;15.20;99.90;;;;;;5033879;28;20521;-73
2022/05/03 09:58:01;;;;;;;62.33;41.17;;;15.20;99.90;;;;;;5034292;28;20033;-73
2022/05/03 10:00:27;;;;;;;59.40;40.90;;;15.30;99.90;;;;;;5034565;28;20100;-73
2022/05/03 10:02:53;;;;;;;58.50;39.67;;;15.50;99.90;;;;;;5033378;28;20421;-73
2022/05/03 10:05:21;;;;;;;55.60;38.30;;;15.40;99.90;;;;;;5034339;28;20105;-73
2022/05/03 10:07:49;;;;;;;51.08;36.67;;;15.60;99.90;;;;;;5034272;28;20049;-73
2022/05/03 10:10:16;;;;;;;52.15;35.85;;;15.80;99.90;;;;;;5034039;28;20083;-73
2022/05/03 10:12:43;;;;;;;45.78;33.92;;;16.10;99.90;;;;;;5034494;28;20026;-73
2022/05/03 10:15:09;;;;;;;47.05;33.53;;;16.40;99.90;;;;;;5034272;28;20080;-73
2022/05/03 10:20:46;;;;;;;41.90;31.35;;;16.90;99.90;;;;;;5034189;28;20089;-73
2022/05/03 10:23:25;;;;;;;42.78;29.83;;;16.90;99.90;;;;;;5032413;28;20458;-73
2022/05/03 10:26:09;;;;;;;37.03;28.45;;;16.40;99.90;;;;;;5033796;28;20057;-73
2022/05/03 10:29:09;;;;;;;41.90;28.88;;;16.30;99.90;;;;;;5034111;28;20025;-73
2022/05/03 10:31:54;;;;;;;35.47;25.03;;;16.50;99.90;;;;;;5033258;28;20389;-73
2022/05/03 10:34:46;;;;;;;30.40;23.67;;;16.70;99.90;;;;;;5034213;28;20037;-73
2022/05/03 10:37:13;;;;;;;27.02;20.25;;;16.70;99.90;;;;;;5033102;28;20108;-73
2022/05/03 10:39:55;;;;;;;33.03;23.83;;;16.90;99.90;;;;;;5033807;28;20029;-73
2022/05/03 10:42:25;;;;;;;30.55;21.92;;;16.80;99.90;;;;;;5033726;28;20033;-73
2022/05/03 10:45:11;;;;;;;30.63;21.67;;;16.70;99.90;;;;;;5032978;28;20022;-73
2022/05/03 10:47:50;;;;;;;27.73;20.73;;;16.60;99.90;;;;;;5033839;28;20029;-73
2022/05/03 10:50:19;;;;;;;25.52;19.33;;;16.30;99.90;;;;;;5033540;28;20495;-73
2022/05/03 10:52:59;;;;;;;28.20;20.90;;;16.40;99.90;;;;;;5032735;28;20535;-73
2022/05/03 10:55:57;;;;;;;29.08;19.33;;;16.70;99.90;;;;;;5033455;28;20052;-73
2022/05/03 10:58:28;;;;;;;26.52;20.13;;;16.90;99.90;;;;;;5032446;28;20038;-73
2022/05/03 11:01:23;;;;;;;27.42;19.67;;;17.10;99.90;;;;;;5033087;28;20524;-72
2022/05/03 11:03:54;;;;;;;28.05;19.42;;;17.00;99.90;;;;;;5033140;28;20545;-73
2022/05/03 11:06:20;;;;;;;;;;;17.00;99.90;;;;;;5033111;28;20034;-72
2022/05/03 11:08:58;;;;;;;29.88;19.67;;;16.90;99.90;;;;;;5033223;28;19916;-72
2022/05/03 11:11:36;;;;;;;29.13;20.65;;;16.80;99.90;;;;;;5033200;28;20036;-73
2022/05/03 11:14:02;;;;;;;30.88;21.95;;;16.80;99.90;;;;;;5032206;28;20382;-73
2022/05/03 11:16:34;;;;;;;30.88;20.63;;;17.00;99.90;;;;;;5033251;28;20022;-74
2022/05/03 11:19:09;;;;;;;31.38;20.45;;;17.10;99.90;;;;;;5032119;28;20041;-73
2022/05/03 11:21:34;;;;;;;29.95;21.13;;;17.00;99.90;;;;;;5033056;28;20037;-73
2022/05/03 11:24:00;;;;;;;27.63;19.50;;;16.90;99.90;;;;;;5032593;28;20123;-72
2022/05/03 11:26:26;;;;;;;29.58;20.80;;;16.90;99.90;;;;;;5032285;28;20021;-73
2022/05/03 11:28:53;;;;;;;29.95;19.35;;;17.00;99.90;;;;;;5032855;28;20028;-72
2022/05/03 11:31:25;;;;;;;32.38;21.02;;;17.00;99.90;;;;;;5032847;28;20557;-73
2022/05/03 11:33:58;;;;;;;36.33;23.50;;;17.10;99.90;;;;;;5031640;28;20025;-73
2022/05/03 11:36:27;;;;;;;44.47;26.00;;;17.20;99.90;;;;;;5032667;28;20041;-73
2022/05/03 11:38:54;;;;;;;37.60;23.92;;;17.00;99.90;;;;;;5032089;28;20262;-72
2022/05/03 11:41:24;;;;;;;48.00;27.55;;;16.90;99.90;;;;;;5032036;28;20029;-72
2022/05/03 11:43:50;;;;;;;50.60;29.30;;;16.60;99.90;;;;;;5032498;28;20021;-73
2022/05/03 11:46:16;;;;;;;52.38;31.15;;;16.40;99.90;;;;;;5032561;28;20478;-73
2022/05/03 11:48:43;;;;;;;69.72;36.90;;;16.30;99.90;;;;;;5031772;28;20036;-72
2022/05/03 11:56:45;;;;;;;60.95;34.40;;;15.70;99.90;;;;;;5032169;28;20048;-72
2022/05/03 11:59:12;;;;;;;49.92;24.98;;;15.50;99.90;;;;;;5031964;28;20079;-72
2022/05/03 12:01:38;;;;;;;48.58;24.85;;;15.30;99.90;;;;;;5031561;28;20022;-72
2022/05/03 12:04:05;;;;;;;43.47;25.20;;;15.00;99.90;;;;;;5032075;28;20108;-73
2022/05/03 12:06:45;;;;;;;46.90;23.33;;;14.70;99.90;;;;;;5032422;28;20018;-74
2022/05/03 12:09:17;;;;;;;;;;;14.40;99.90;;;;;;5031815;28;20057;-73
2022/05/03 12:14:42;;;;;;;43.38;22.63;;;14.30;99.90;;;;;;5032068;28;20390;-72
2022/05/03 12:17:08;;;;;;;39.05;23.08;;;14.40;99.90;;;;;;5031083;28;20040;-72
2022/05/03 12:19:35;;;;;;;42.60;24.52;;;14.60;99.90;;;;;;5032050;28;20042;-72
2022/05/03 12:22:12;;;;;;;42.72;22.52;;;14.70;99.90;;;;;;5031886;28;20045;-73
2022/05/03 12:24:38;;;;;;;38.85;22.13;;;14.90;99.90;;;;;;5032020;28;20034;-72
2022/05/03 12:27:12;;;;;;;39.92;23.02;;;15.00;99.90;;;;;;5031680;28;20040;-72
2022/05/03 12:29:48;;;;;;;40.45;22.05;;;15.00;99.90;;;;;;5031435;28;20091;-72
2022/05/03 12:32:18;;;;;;;35.85;19.70;;;15.00;99.90;;;;;;5032167;28;20071;-73
2022/05/03 12:34:59;;;;;;;31.70;18.90;;;15.20;99.90;;;;;;5032139;28;20033;-74
2022/05/03 12:37:25;;;;;;;;;;;15.40;99.90;;;;;;5032234;28;20037;-74
2022/05/03 12:39:51;;;;;;;28.70;16.05;;;15.30;99.90;;;;;;5031695;28;19913;-74
2022/05/03 12:42:16;;;;;;;28.83;15.75;;;15.40;99.90;;;;;;5031944;28;20472;-73
2022/05/03 12:44:48;;;;;;;20.95;12.48;;;15.60;99.90;;;;;;5031780;28;20034;-72
2022/05/03 12:47:15;;;;;;;17.30;12.68;;;15.60;99.90;;;;;;5035932;28;20028;-73
2022/05/03 12:49:41;;;;;;;30.05;14.60;;;15.30;99.90;;;;;;5035817;28;20477;-73
2022/05/03 12:52:07;;;;;;;26.73;15.30;;;15.10;99.90;;;;;;5035105;28;20032;-73
2022/05/03 12:54:33;;;;;;;26.30;15.98;;;15.00;99.90;;;;;;5035759;28;20478;-73
2022/05/03 12:59:43;;;;;;;21.58;14.57;;;15.10;99.90;;;;;;5035702;28;20549;-73
2022/05/03 13:02:08;;;;;;;21.90;14.02;;;15.30;99.90;;;;;;5035412;28;20053;-73
2022/05/03 13:04:34;;;;;;;22.48;14.07;;;15.40;99.90;;;;;;5035074;28;20029;-73
2022/05/03 13:07:00;;;;;;;21.42;14.90;;;15.50;99.90;;;;;;5035453;28;20021;-73
2022/05/03 13:09:26;;;;;;;25.35;14.65;;;15.50;99.90;;;;;;5035650;28;20036;-73
2022/05/03 13:11:53;;;;;;;24.17;12.50;;;15.50;99.90;;;;;;5034472;28;20025;-73
2022/05/03 13:14:18;;;;;;;22.17;14.38;;;15.40;99.90;;;;;;5035445;28;20037;-73
2022/05/03 13:16:45;;;;;;;23.48;15.20;;;15.50;99.90;;;;;;5034958;28;20056;-72
2022/05/03 13:19:12;;;;;;;28.52;15.30;;;15.50;99.90;;;;;;5034388;28;20045;-72
2022/05/03 13:21:43;;;;;;;25.73;15.98;;;15.60;99.90;;;;;;5035481;28;20095;-72